Haslev, Denmark
Current Conditions -  °F | °C
As of 1:20 AM on Friday 19 Dec 2014 (Local Time) from EKRK Reporting Station
Overcast Overcast  
Wind Chill: 52°   Ceiling: 1200
Heat Index: 52°   Visibility: 6mi
Dew Point: 48°   Wind: 21mph
Humidity: 88%   Direction: 260°W
Pressure: 29.41"   Gusts: NA
Location:  55.32°N, 11.96°E
Report Text: EKRK 190020Z AUTO 26018KT 9999NDV FEW009/// BKN012///BKN016/// OVC021/// 11/09 Q0996
Loading
Personal Weather Stations






























Interactive Weather Map New forecast layout! Learn more

10-Day Weather Forecast

Advertisements
Track Severe Weather on mobile